Time;durP1;ratioP1;P1;durP2;ratioP2;P2;SDS_P1;SDS_P2;PMS_P1;PMS_P2;Temp;Humidity;BMP_temperature;BMP_pressure;BME280_temperature;BME280_humidity;BME280_pressure;Samples;Min_cycle;Max_cycle;Signal;HPM_P1;HPM_P2
2022/03/16 05:22:46;;;;;;;118.72;39.47;;;;;;;6.87;100.00;101069.09;5076119;28;20378;-71
2022/03/16 05:25:16;;;;;;;113.75;40.40;;;;;;;6.86;100.00;101070.06;5088540;28;20135;-70
2022/03/16 05:27:42;;;;;;;118.63;42.35;;;;;;;6.92;100.00;101066.91;5088687;28;20510;-71
2022/03/16 05:30:09;;;;;;;122.65;39.90;;;;;;;6.94;100.00;101072.06;5088790;28;20040;-70
2022/03/16 05:32:35;;;;;;;121.87;43.20;;;;;;;6.94;100.00;101069.41;5070263;28;20090;-70
2022/03/16 05:35:01;;;;;;;116.45;40.72;;;;;;;6.87;100.00;101070.91;5107529;22;20682;-74
2022/03/16 05:37:26;;;;;;;103.78;38.25;;;;;;;6.94;100.00;101072.91;5028964;28;20042;-75
2022/03/16 05:39:53;;;;;;;104.43;39.92;;;;;;;6.94;100.00;101075.53;5028614;28;20038;-75
2022/03/16 05:42:19;;;;;;;98.45;38.35;;;;;;;6.94;100.00;101082.66;5043697;28;20041;-72
2022/03/16 05:44:45;;;;;;;99.60;38.10;;;;;;;6.96;100.00;101080.72;5029105;28;20038;-72
2022/03/16 05:47:11;;;;;;;110.20;40.50;;;;;;;6.98;100.00;101078.78;5027886;28;20044;-72
2022/03/16 05:49:38;;;;;;;89.53;35.55;;;;;;;7.00;100.00;101072.38;5028735;28;20034;-72
2022/03/16 05:52:04;;;;;;;88.90;35.67;;;;;;;6.97;100.00;101079.72;5027075;28;20029;-72
2022/03/16 05:54:30;;;;;;;92.82;36.17;;;;;;;6.96;100.00;101078.06;5011007;28;20406;-71
2022/03/16 05:56:56;;;;;;;85.03;36.03;;;;;;;6.93;100.00;101080.97;5028488;28;20042;-74
2022/03/16 05:59:21;;;;;;;101.78;37.08;;;;;;;6.90;100.00;101068.81;5027678;28;20041;-73
2022/03/16 06:01:47;;;;;;;90.90;36.58;;;;;;;6.98;100.00;101081.44;5027320;28;20038;-72
2022/03/16 06:04:12;;;;;;;95.50;39.17;;;;;;;7.03;100.00;101073.91;5028232;28;20095;-72
2022/03/16 06:06:38;;;;;;;86.25;34.88;;;;;;;6.99;100.00;101075.16;5027161;28;20046;-73
2022/03/16 06:09:04;;;;;;;89.22;33.28;;;;;;;7.06;100.00;101077.16;5010590;28;20533;-73
2022/03/16 06:11:30;;;;;;;94.28;34.50;;;;;;;6.96;100.00;101073.59;5026836;28;20498;-73
2022/03/16 06:13:55;;;;;;;78.93;32.33;;;;;;;7.00;100.00;101079.50;5027897;28;20038;-72
2022/03/16 06:16:21;;;;;;;81.28;35.40;;;;;;;6.99;100.00;101083.13;5027957;28;20060;-71
2022/03/16 06:18:47;;;;;;;83.70;34.53;;;;;;;6.98;100.00;101084.09;5026686;28;20057;-73
2022/03/16 06:21:13;;;;;;;86.93;34.45;;;;;;;6.93;100.00;101084.47;5027897;28;20042;-73
2022/03/16 06:23:39;;;;;;;85.15;35.80;;;;;;;6.92;100.00;101082.78;5027495;28;20040;-72
2022/03/16 06:26:05;;;;;;;80.22;33.08;;;;;;;7.00;100.00;101087.44;5027774;28;20048;-73
2022/03/16 06:28:31;;;;;;;79.93;34.22;;;;;;;6.98;100.00;101089.38;5026673;28;20120;-72
2022/03/16 06:30:57;;;;;;;84.03;33.47;;;;;;;7.07;100.00;101084.13;5027645;28;20018;-73
2022/03/16 06:33:23;;;;;;;78.10;31.80;;;;;;;7.08;100.00;101090.28;5017194;28;20049;-73
2022/03/16 06:35:49;;;;;;;87.38;36.10;;;;;;;7.00;100.00;101084.78;5014365;28;20133;-73
2022/03/16 06:38:14;;;;;;;82.72;33.60;;;;;;;7.07;100.00;101093.91;5014457;28;20069;-73
2022/03/16 06:40:40;;;;;;;82.20;34.72;;;;;;;7.14;100.00;101099.50;5014323;28;20089;-72
2022/03/16 06:43:06;;;;;;;83.65;34.30;;;;;;;7.22;100.00;101094.38;5014179;28;20065;-73
2022/03/16 06:45:32;;;;;;;84.85;33.83;;;;;;;7.18;100.00;101098.28;5014309;28;20522;-72
2022/03/16 06:48:00;;;;;;;82.15;34.58;;;;;;;7.19;100.00;101100.81;5014201;28;20060;-73
2022/03/16 06:50:27;;;;;;;76.70;33.00;;;;;;;7.24;100.00;101103.91;5014418;28;20040;-73
2022/03/16 06:52:56;;;;;;;76.30;31.25;;;;;;;7.28;100.00;101115.06;5014198;28;20030;-73
2022/03/16 06:55:22;;;;;;;82.38;32.08;;;;;;;7.18;100.00;101114.19;5014057;28;20044;-72
2022/03/16 06:57:48;;;;;;;85.57;32.97;;;;;;;7.22;100.00;101119.09;5014154;28;20029;-73
2022/03/16 07:00:15;;;;;;;89.60;34.63;;;;;;;7.28;100.00;101109.78;5013971;28;20120;-74
2022/03/16 07:02:53;;;;;;;85.22;32.75;;;;;;;7.20;100.00;101118.38;5013759;28;20487;-73
2022/03/16 07:05:19;;;;;;;93.07;36.15;;;;;;;7.19;100.00;101113.22;5014096;28;20084;-73
2022/03/16 07:07:44;;;;;;;92.68;36.15;;;;;;;7.30;100.00;101121.06;5013901;28;20052;-73
2022/03/16 07:10:10;;;;;;;93.72;34.90;;;;;;;7.18;100.00;101112.38;5013765;28;20042;-73
2022/03/16 07:12:36;;;;;;;90.30;36.50;;;;;;;7.21;100.00;101105.97;5013546;28;20105;-74
2022/03/16 07:15:02;;;;;;;84.85;35.20;;;;;;;7.21;100.00;101104.16;5013909;28;20050;-72
2022/03/16 07:17:27;;;;;;;84.13;31.77;;;;;;;7.39;100.00;101114.16;5013772;28;20121;-76
2022/03/16 07:19:53;;;;;;;91.60;35.85;;;;;;;7.38;100.00;101113.31;5012495;28;20042;-73
2022/03/16 07:22:19;;;;;;;95.25;37.97;;;;;;;7.38;100.00;101123.09;5013467;28;20046;-77
2022/03/16 07:24:44;;;;;;;95.35;36.80;;;;;;;7.42;100.00;101125.31;5014194;28;20495;-72
2022/03/16 07:27:11;;;;;;;95.65;36.25;;;;;;;7.44;100.00;101119.91;5013573;28;20488;-72
2022/03/16 07:29:38;;;;;;;95.32;37.28;;;;;;;7.50;100.00;101124.69;5012423;28;20458;-73
2022/03/16 07:32:04;;;;;;;95.53;36.38;;;;;;;7.53;100.00;101129.72;5013016;28;20037;-73
2022/03/16 07:34:30;;;;;;;90.07;37.17;;;;;;;7.56;100.00;101129.44;5013402;28;20041;-73
2022/03/16 07:36:56;;;;;;;97.13;38.30;;;;;;;7.58;100.00;101135.47;5011773;28;20046;-72
2022/03/16 07:39:21;;;;;;;96.70;36.42;;;;;;;7.64;100.00;101132.28;5013219;28;20081;-72
2022/03/16 07:41:48;;;;;;;96.43;36.08;;;;;;;7.60;100.00;101133.53;5012889;28;20091;-72
2022/03/16 07:44:14;;;;;;;104.28;37.70;;;;;;;7.69;100.00;101138.00;5012466;28;20494;-72
2022/03/16 07:46:41;;;;;;;93.18;37.85;;;;;;;7.72;100.00;101137.75;5013646;28;20526;-72
2022/03/16 07:49:06;;;;;;;86.93;34.15;;;;;;;7.80;100.00;101134.44;5013147;28;20037;-73
2022/03/16 07:51:32;;;;;;;88.40;35.58;;;;;;;7.88;100.00;101132.78;5011775;28;20177;-74
2022/03/16 07:53:57;;;;;;;86.93;35.08;;;;;;;7.92;100.00;101138.69;5012961;28;20038;-72
2022/03/16 07:56:23;;;;;;;95.07;36.60;;;;;;;7.97;100.00;101135.63;5013026;28;20045;-72
2022/03/16 07:58:49;;;;;;;92.13;37.13;;;;;;;8.09;100.00;101131.91;5012825;28;20123;-72
2022/03/16 08:01:14;;;;;;;95.35;37.35;;;;;;;8.18;100.00;101136.38;5012593;28;20038;-71
2022/03/16 08:03:40;;;;;;;88.25;34.05;;;;;;;8.22;100.00;101129.84;5012675;28;20041;-74
2022/03/16 08:06:06;;;;;;;86.47;34.45;;;;;;;8.28;100.00;101129.28;5012787;28;20041;-73
2022/03/16 08:08:31;;;;;;;85.43;35.00;;;;;;;8.30;100.00;101126.50;5012829;28;20044;-73
2022/03/16 08:10:58;;;;;;;89.07;36.47;;;;;;;8.42;100.00;101122.78;5012922;28;20519;-72
2022/03/16 08:13:24;;;;;;;76.28;32.58;;;;;;;8.50;100.00;101108.81;5012395;28;20049;-73
2022/03/16 08:15:50;;;;;;;100.68;38.00;;;;;;;8.52;100.00;101109.50;5012513;28;20375;-72
2022/03/16 08:18:16;;;;;;;87.32;34.67;;;;;;;8.56;100.00;101113.56;5012608;28;20048;-73
2022/03/16 08:20:41;;;;;;;92.97;35.05;;;;;;;8.56;100.00;101110.91;5012500;28;20140;-72
2022/03/16 08:23:07;;;;;;;87.80;35.15;;;;;;;8.63;100.00;101115.50;5012313;28;20038;-72
2022/03/16 08:25:32;;;;;;;87.70;35.45;;;;;;;8.72;100.00;101116.47;5012589;28;20037;-72
2022/03/16 08:27:59;;;;;;;91.07;35.70;;;;;;;8.81;100.00;101112.16;5012239;28;20407;-72
2022/03/16 08:30:25;;;;;;;81.90;34.28;;;;;;;8.89;100.00;101109.63;5012365;28;20503;-72
2022/03/16 08:32:50;;;;;;;92.40;34.28;;;;;;;8.91;100.00;101108.50;5012125;28;20040;-72
2022/03/16 08:35:16;;;;;;;87.03;34.30;;;;;;;8.98;99.83;101106.94;5012322;28;20042;-73
2022/03/16 08:37:42;;;;;;;90.28;34.97;;;;;;;8.97;100.00;101105.28;5012285;28;20030;-73
2022/03/16 08:40:07;;;;;;;86.30;32.80;;;;;;;9.07;99.20;101105.28;5012274;28;20057;-72
2022/03/16 08:42:33;;;;;;;82.45;31.98;;;;;;;9.18;98.05;101105.09;5011959;28;20042;-72
2022/03/16 08:45:01;;;;;;;87.75;36.13;;;;;;;9.22;98.88;101111.81;5010807;28;20042;-72
2022/03/16 08:47:26;;;;;;;81.38;34.08;;;;;;;9.33;98.07;101112.66;5010861;28;20107;-71
2022/03/16 08:49:55;;;;;;;87.57;33.22;;;;;;;9.32;98.47;101111.78;5012152;28;20042;-73
2022/03/16 08:52:21;;;;;;;85.97;33.65;;;;;;;9.39;97.31;101106.72;5011691;28;20048;-72
2022/03/16 08:54:47;;;;;;;90.57;33.65;;;;;;;9.36;97.35;101097.22;5012254;28;20488;-74
2022/03/16 08:57:14;;;;;;;90.20;33.75;;;;;;;9.51;96.55;101109.06;5011894;28;20041;-73
2022/03/16 08:59:40;;;;;;;97.35;34.97;;;;;;;9.56;96.17;101095.34;5012103;28;20033;-74
2022/03/16 09:02:07;;;;;;;82.43;33.00;;;;;;;9.53;95.88;101100.97;5010459;28;20049;-73
2022/03/16 09:04:34;;;;;;;82.28;34.17;;;;;;;9.66;95.25;101109.44;5010628;28;20148;-72
2022/03/16 09:07:02;;;;;;;91.35;35.47;;;;;;;9.68;94.51;101098.66;5011935;28;20050;-73
2022/03/16 09:09:27;;;;;;;;;;;;;;;9.69;94.79;101098.50;5012332;28;20501;-74
2022/03/16 09:11:53;;;;;;;91.45;34.00;;;;;;;9.75;95.19;101102.41;5011590;28;19922;-74
2022/03/16 09:14:18;;;;;;;87.28;32.80;;;;;;;9.76;94.25;101096.09;5011834;28;20037;-74
2022/03/16 09:16:45;;;;;;;77.70;30.92;;;;;;;9.87;93.95;101101.22;5010514;28;20504;-74
2022/03/16 09:19:15;;;;;;;89.45;33.78;;;;;;;9.98;94.28;101106.34;5010502;28;20045;-72
2022/03/16 09:21:43;;;;;;;88.75;34.10;;;;;;;10.00;93.60;101101.72;5011700;28;20038;-72
2022/03/16 09:24:10;;;;;;;90.10;33.72;;;;;;;10.14;91.65;101096.88;5010620;28;20046;-72
2022/03/16 09:26:36;;;;;;;85.60;34.83;;;;;;;10.10;93.37;101106.13;5011620;28;20030;-71
2022/03/16 09:29:07;;;;;;;82.40;32.22;;;;;;;10.27;91.76;101100.03;5010441;28;20034;-71
2022/03/16 09:31:37;;;;;;;79.90;31.50;;;;;;;10.27;90.84;101090.22;5010580;28;20132;-73
2022/03/16 09:34:07;;;;;;;90.07;34.22;;;;;;;10.27;90.40;101097.38;5010306;28;20042;-72
2022/03/16 09:36:34;;;;;;;91.80;34.85;;;;;;;10.35;90.45;101093.94;5006563;28;20165;-73
2022/03/16 09:39:00;;;;;;;83.93;34.67;;;;;;;10.51;90.55;101092.28;4992164;28;20038;-73
2022/03/16 09:41:26;;;;;;;85.97;31.98;;;;;;;10.52;90.12;101083.31;4991905;28;20061;-72
2022/03/16 09:43:53;;;;;;;84.55;34.92;;;;;;;10.31;90.43;101088.09;4991850;28;20049;-72
2022/03/16 09:46:27;;;;;;;81.20;35.42;;;;;;;10.67;88.98;101072.09;4991747;28;20120;-72
2022/03/16 09:48:54;;;;;;;81.53;32.53;;;;;;;10.62;88.81;101074.38;4990651;28;20066;-72
2022/03/16 09:51:19;;;;;;;84.47;33.30;;;;;;;10.74;87.70;101083.81;4991900;28;20053;-72
2022/03/16 09:53:46;;;;;;;78.15;32.33;;;;;;;10.69;88.11;101083.44;4990195;28;20046;-72
2022/03/16 09:56:12;;;;;;;83.97;32.90;;;;;;;10.79;88.05;101081.53;4991728;28;20081;-73
2022/03/16 09:58:40;;;;;;;84.13;33.92;;;;;;;10.97;86.85;101082.34;4991490;28;20041;-72
2022/03/16 10:01:06;;;;;;;;;;;;;;;11.07;86.38;101080.41;4992163;28;20113;-73
2022/03/16 10:03:32;;;;;;;80.00;32.25;;;;;;;11.08;86.03;101071.44;4991467;28;20016;-73
2022/03/16 10:05:59;;;;;;;84.50;31.95;;;;;;;11.07;85.29;101074.25;4991458;28;20066;-69
2022/03/16 10:08:27;;;;;;;88.90;35.28;;;;;;;11.23;86.21;101071.69;4993871;28;20530;-70
2022/03/16 10:13:50;;;;;;;86.95;32.97;;;;;;;11.64;83.27;101062.06;4995010;28;20038;-72
2022/03/16 10:16:16;;;;;;;80.68;32.08;;;;;;;11.75;81.60;101062.78;4993826;28;20488;-72
2022/03/16 10:18:46;;;;;;;83.03;32.33;;;;;;;11.85;82.12;101067.00;4995260;28;20051;-73
2022/03/16 10:21:12;;;;;;;79.75;32.80;;;;;;;12.02;80.66;101061.72;4995108;28;20062;-73
2022/03/16 10:23:39;;;;;;;85.00;33.65;;;;;;;12.05;81.08;101064.06;4994969;28;20030;-72
2022/03/16 10:26:05;;;;;;;82.70;30.80;;;;;;;12.34;78.58;101052.94;4995099;28;20049;-73
2022/03/16 10:28:32;;;;;;;85.22;33.25;;;;;;;12.47;78.37;101058.63;4994972;28;20038;-72
2022/03/16 10:31:02;;;;;;;79.85;31.70;;;;;;;12.17;79.83;101060.09;4994982;28;20114;-73
2022/03/16 10:33:42;;;;;;;80.05;35.13;;;;;;;12.39;79.07;101051.47;4994745;28;20041;-72
2022/03/16 10:36:13;;;;;;;78.50;30.63;;;;;;;12.72;78.34;101052.31;4994686;28;20052;-73
2022/03/16 10:38:42;;;;;;;77.72;32.30;;;;;;;13.00;76.36;101054.63;4995050;28;20189;-73
2022/03/16 10:46:34;;;;;;;79.40;31.15;;;;;;;13.15;74.93;101046.72;4994739;28;20093;-72
2022/03/16 10:46:50;;;;;;;80.47;32.37;;;;;;;13.26;73.91;101046.41;4994524;28;20065;-72
2022/03/16 10:49:22;;;;;;;71.90;29.48;;;;;;;13.51;74.83;101048.00;4994711;28;20309;-72
2022/03/16 10:52:05;;;;;;;71.00;30.83;;;;;;;13.41;76.69;101041.16;4994364;28;20026;-73
2022/03/16 10:54:33;;;;;;;71.32;29.52;;;;;;;13.99;71.50;101046.09;4994573;28;20034;-72
2022/03/16 10:57:00;;;;;;;77.85;30.60;;;;;;;14.52;69.33;101039.06;4994379;28;20124;-73
2022/03/16 10:59:29;;;;;;;71.90;30.70;;;;;;;14.59;68.98;101031.97;4994528;28;20330;-73
2022/03/16 11:02:12;;;;;;;69.88;28.42;;;;;;;14.54;68.75;101030.81;4994170;28;20786;-73
2022/03/16 11:04:40;;;;;;;73.22;29.60;;;;;;;14.31;69.15;101037.00;4994553;28;20373;-72
2022/03/16 11:07:06;;;;;;;64.53;29.70;;;;;;;14.16;70.52;101052.19;4994355;28;20077;-73
2022/03/16 11:09:34;;;;;;;76.33;29.40;;;;;;;14.25;70.23;101044.94;4994396;28;20042;-75
2022/03/16 11:14:50;;;;;;;68.15;29.58;;;;;;;14.74;67.62;101040.06;4994544;28;20117;-72
2022/03/16 11:17:16;;;;;;;67.63;28.33;;;;;;;14.70;68.53;101024.50;4994504;28;20483;-73
2022/03/16 11:19:44;;;;;;;61.55;27.25;;;;;;;14.61;68.41;101026.44;4994218;28;20125;-73
2022/03/16 11:22:12;;;;;;;70.65;29.90;;;;;;;14.38;68.59;101029.94;4993769;28;20042;-73
2022/03/16 11:24:43;;;;;;;66.88;28.75;;;;;;;14.32;69.48;101027.13;4994194;28;20097;-73
2022/03/16 11:27:27;;;;;;;69.97;30.55;;;;;;;13.93;70.95;101029.88;4992748;28;20038;-72
2022/03/16 11:30:10;;;;;;;69.65;29.38;;;;;;;13.82;71.75;101025.75;4994178;28;20072;-73
2022/03/16 11:32:41;;;;;;;68.63;28.00;;;;;;;13.78;72.54;101022.59;4992515;28;20053;-73
2022/03/16 11:35:15;;;;;;;71.30;29.17;;;;;;;13.66;72.86;101013.28;4993804;28;20041;-73
2022/03/16 11:37:45;;;;;;;72.30;28.75;;;;;;;13.52;73.76;101006.00;4993954;28;20034;-74
2022/03/16 11:40:10;;;;;;;64.63;27.05;;;;;;;13.58;73.66;101019.53;5008902;28;20042;-73
2022/03/16 11:42:38;;;;;;;66.32;27.88;;;;;;;13.71;72.97;101010.09;4993675;28;20042;-72
2022/03/16 11:45:22;;;;;;;;;;;;;;;13.79;72.79;101015.41;4994346;28;20037;-72
2022/03/16 11:47:48;;;;;;;65.55;26.05;;;;;;;13.94;72.30;101010.97;4993692;28;20295;-71
2022/03/16 11:50:17;;;;;;;69.38;26.85;;;;;;;13.77;72.48;101009.41;4993789;28;20042;-72
2022/03/16 11:52:59;;;;;;;65.72;28.50;;;;;;;13.56;73.73;101016.19;4993796;28;20407;-72
2022/03/16 11:55:55;;;;;;;67.75;27.25;;;;;;;13.64;73.96;101018.00;4993792;28;20042;-72
2022/03/16 11:58:26;;;;;;;65.07;28.70;;;;;;;13.51;73.87;101004.34;4993581;28;20510;-72
2022/03/16 12:01:27;;;;;;;64.88;28.23;;;;;;;13.30;74.93;101008.44;4993455;28;20082;-74
2022/03/16 12:07:05;;;;;;;69.87;28.60;;;;;;;13.16;75.10;101001.06;4993365;28;20562;-72
2022/03/16 12:09:39;;;;;;;68.70;28.77;;;;;;;13.19;75.27;101000.75;4993343;28;20038;-73
2022/03/16 12:15:12;;;;;;;;;;;;;;;12.90;76.92;100987.09;4993491;28;20045;-73
2022/03/16 12:17:43;;;;;;;67.43;26.73;;;;;;;12.76;77.58;100984.09;4993006;28;19914;-72
2022/03/16 12:20:10;;;;;;;65.97;27.58;;;;;;;12.86;77.35;100986.63;4993193;28;20522;-73
2022/03/16 12:22:45;;;;;;;77.77;30.13;;;;;;;12.64;78.09;100979.28;4992601;28;20069;-73
2022/03/16 12:25:26;;;;;;;65.53;26.85;;;;;;;12.68;78.47;100978.78;4991654;28;20126;-74
2022/03/16 12:31:17;;;;;;;79.70;29.80;;;;;;;12.99;76.99;100960.19;4992387;28;20030;-72
2022/03/16 12:33:48;;;;;;;74.20;28.92;;;;;;;12.96;77.65;100951.66;4992455;28;20499;-73
2022/03/16 12:36:15;;;;;;;72.45;30.95;;;;;;;13.03;77.09;100949.94;4992647;28;20144;-72
2022/03/16 12:38:48;;;;;;;74.30;28.55;;;;;;;13.12;76.57;100943.59;4991568;28;20138;-73
2022/03/16 12:44:02;;;;;;;72.03;29.38;;;;;;;13.14;76.04;100960.28;4992676;28;20381;-73
2022/03/16 12:46:32;;;;;;;;;;;;;;;13.13;76.39;100953.28;4993093;28;20045;-72
2022/03/16 12:49:12;;;;;;;73.40;28.88;;;;;;;13.22;75.93;100956.78;4992807;28;20381;-73
2022/03/16 12:51:39;;;;;;;63.78;25.73;;;;;;;13.22;75.98;100949.59;4992864;28;20082;-73
2022/03/16 12:54:06;;;;;;;64.07;26.65;;;;;;;13.38;74.87;100945.19;4991075;28;20034;-74
2022/03/16 12:56:38;;;;;;;70.97;29.65;;;;;;;13.33;74.69;100950.22;4992375;28;20062;-73
2022/03/16 12:59:04;;;;;;;65.70;26.98;;;;;;;13.31;75.31;100955.75;4992532;28;20061;-73
2022/03/16 13:01:30;;;;;;;72.60;29.02;;;;;;;13.48;74.08;100938.59;4992153;28;20064;-71
2022/03/16 13:04:00;;;;;;;64.32;26.77;;;;;;;13.57;74.15;100923.34;4992327;28;20468;-71
2022/03/16 13:06:31;;;;;;;64.30;27.45;;;;;;;13.68;74.05;100936.31;4992281;28;20041;-71
2022/03/16 13:08:57;;;;;;;67.43;27.63;;;;;;;13.62;73.61;100933.50;4992238;28;20522;-72
2022/03/16 13:11:28;;;;;;;65.05;27.63;;;;;;;13.74;73.42;100930.25;4992305;28;20023;-72
2022/03/16 13:14:16;;;;;;;67.57;27.48;;;;;;;13.75;73.61;100926.56;4992283;28;20109;-73
2022/03/16 13:16:55;;;;;;;60.70;26.55;;;;;;;13.81;73.29;100919.66;4992233;28;20038;-72
2022/03/16 13:19:26;;;;;;;62.47;26.20;;;;;;;13.89;73.72;100924.13;4992178;28;20039;-72
2022/03/16 13:22:12;;;;;;;62.25;28.08;;;;;;;13.95;72.57;100920.72;4999906;28;20096;-71
2022/03/16 13:24:38;;;;;;;69.65;27.88;;;;;;;13.75;73.30;100915.00;5009049;28;20153;-72
2022/03/16 13:27:07;;;;;;;61.55;25.10;;;;;;;13.80;73.56;100909.97;5011703;28;20032;-72
2022/03/16 13:29:34;;;;;;;65.22;28.50;;;;;;;13.88;72.99;100906.38;5011974;28;20033;-72
2022/03/16 13:32:03;;;;;;;58.42;26.90;;;;;;;13.75;72.81;100905.13;5012248;28;20464;-72
2022/03/16 13:34:31;;;;;;;60.10;25.13;;;;;;;13.73;72.65;100891.09;5012091;28;20068;-71
2022/03/16 13:36:57;;;;;;;63.85;27.38;;;;;;;13.67;73.34;100889.13;5010582;28;20041;-72
2022/03/16 13:39:28;;;;;;;52.38;25.92;;;;;;;13.73;73.10;100883.06;5011614;28;20032;-71
2022/03/16 13:42:11;;;;;;;62.60;25.75;;;;;;;13.62;73.00;100883.47;5011267;28;20044;-71
2022/03/16 13:44:40;;;;;;;56.58;25.00;;;;;;;13.55;73.97;100882.53;5015541;28;20124;-72
2022/03/16 13:47:18;;;;;;;58.22;24.30;;;;;;;13.57;74.06;100875.16;5015438;28;20037;-71
2022/03/16 13:49:46;;;;;;;52.40;25.23;;;;;;;13.54;73.92;100870.16;5015451;28;20072;-72
2022/03/16 13:52:24;;;;;;;56.58;25.02;;;;;;;13.51;73.62;100882.06;5015058;28;20037;-72
2022/03/16 13:54:51;;;;;;;54.00;24.00;;;;;;;13.50;73.51;100879.56;5015519;28;20045;-72
2022/03/16 13:57:22;;;;;;;50.03;24.05;;;;;;;13.40;74.03;100885.13;5015359;28;20518;-72
2022/03/16 14:00:07;;;;;;;54.28;23.70;;;;;;;13.35;74.20;100898.19;5015563;28;20038;-73
2022/03/16 14:02:42;;;;;;;56.50;24.48;;;;;;;13.46;74.15;100888.94;5015035;28;20026;-72
2022/03/16 14:05:15;;;;;;;55.92;24.42;;;;;;;13.46;74.05;100894.28;5015376;28;20042;-73
2022/03/16 14:07:44;;;;;;;51.70;21.48;;;;;;;13.47;73.77;100891.44;5015676;28;20117;-73
2022/03/16 14:10:10;;;;;;;54.97;22.38;;;;;;;13.37;74.53;100885.50;5015150;28;20037;-76
2022/03/16 14:12:37;;;;;;;50.83;21.17;;;;;;;13.54;74.16;100878.19;5014723;28;20036;-71
2022/03/16 14:15:18;;;;;;;46.75;21.77;;;;;;;13.67;73.31;100880.28;5015100;28;20065;-72
2022/03/16 14:17:47;;;;;;;50.58;21.85;;;;;;;13.46;73.57;100876.38;5029625;28;20123;-73
2022/03/16 14:20:18;;;;;;;52.15;22.85;;;;;;;13.50;73.50;100869.69;5014944;28;20041;-72
2022/03/16 14:22:52;;;;;;;47.72;22.50;;;;;;;13.39;74.57;100870.09;5014494;28;20034;-72
2022/03/16 14:25:28;;;;;;;54.58;25.30;;;;;;;13.41;73.88;100861.88;5014879;28;20029;-72
2022/03/16 14:27:56;;;;;;;56.50;23.88;;;;;;;13.37;74.94;100852.56;5014746;28;20034;-73
2022/03/16 14:30:22;;;;;;;;;;;;;;;13.43;74.19;100854.50;5015216;28;20137;-72
2022/03/16 14:32:50;;;;;;;49.97;22.67;;;;;;;13.43;73.67;100852.69;5014335;28;20358;-73
2022/03/16 14:35:18;;;;;;;50.85;23.70;;;;;;;13.46;73.78;100859.50;5013148;28;20108;-71
2022/03/16 14:37:44;;;;;;;52.13;23.52;;;;;;;13.48;73.19;100857.47;5014708;28;20042;-72
2022/03/16 14:40:15;;;;;;;55.95;23.92;;;;;;;13.46;74.06;100854.16;5014650;28;20038;-72
2022/03/16 14:42:42;;;;;;;52.90;25.27;;;;;;;13.46;74.57;100854.16;5014209;28;20042;-73
2022/03/16 14:45:08;;;;;;;53.38;23.83;;;;;;;13.50;74.07;100848.28;5014438;28;20038;-74
2022/03/16 14:47:34;;;;;;;52.95;24.90;;;;;;;13.43;74.53;100863.38;5013172;28;20069;-71
2022/03/16 14:50:01;;;;;;;59.30;23.95;;;;;;;13.44;74.56;100866.88;5014508;28;20026;-72
2022/03/16 14:52:27;;;;;;;53.30;23.75;;;;;;;13.42;74.29;100866.22;5014261;28;20057;-73
2022/03/16 14:54:53;;;;;;;51.17;24.15;;;;;;;13.55;73.88;100869.13;5013788;28;20034;-71
2022/03/16 14:57:19;;;;;;;50.67;23.70;;;;;;;13.61;73.90;100860.41;5013381;28;20048;-72
2022/03/16 14:59:46;;;;;;;47.67;22.02;;;;;;;13.70;73.36;100859.34;5014322;28;20045;-72
2022/03/16 15:02:12;;;;;;;51.35;23.00;;;;;;;13.71;73.09;100863.69;5014006;28;20044;-73
2022/03/16 15:04:38;;;;;;;48.90;22.63;;;;;;;13.71;72.23;100857.50;5014491;28;20425;-73
2022/03/16 15:07:04;;;;;;;48.08;23.35;;;;;;;13.71;72.31;100866.34;5014204;28;20038;-73
2022/03/16 15:09:29;;;;;;;52.15;22.88;;;;;;;13.78;71.78;100861.94;5014457;28;20407;-70
2022/03/16 15:11:55;;;;;;;54.10;23.48;;;;;;;13.75;71.61;100859.63;5013810;28;20038;-71
2022/03/16 15:14:21;;;;;;;51.67;22.92;;;;;;;13.76;71.56;100866.66;5014150;28;20038;-71
2022/03/16 15:16:46;;;;;;;45.53;22.17;;;;;;;13.62;72.04;100862.06;5014142;28;20045;-70
2022/03/16 15:19:12;;;;;;;47.47;23.13;;;;;;;13.59;71.82;100857.06;5014049;28;20060;-73
2022/03/16 15:21:38;;;;;;;49.20;22.95;;;;;;;13.61;71.17;100854.22;5013710;28;20053;-71
2022/03/16 15:24:04;;;;;;;56.45;23.83;;;;;;;13.58;71.32;100856.25;5013739;28;20046;-71
2022/03/16 15:26:30;;;;;;;51.65;22.50;;;;;;;13.55;70.63;100845.03;5013723;28;20460;-70
2022/03/16 15:28:56;;;;;;;45.40;21.17;;;;;;;13.62;70.75;100842.50;5013818;28;20066;-71
2022/03/16 15:31:22;;;;;;;49.50;21.83;;;;;;;13.60;70.70;100845.34;5013689;28;20046;-71
2022/03/16 15:33:48;;;;;;;52.65;21.35;;;;;;;13.52;70.74;100840.91;5013458;28;20037;-71
2022/03/16 15:36:14;;;;;;;50.95;21.65;;;;;;;13.48;70.66;100828.03;5013450;28;20049;-73
2022/03/16 15:38:40;;;;;;;41.08;19.52;;;;;;;13.43;70.40;100825.06;5013374;28;20038;-72
2022/03/16 15:43:52;;;;;;;51.10;21.65;;;;;;;13.18;71.98;100816.34;5031707;28;20087;-70
2022/03/16 15:46:19;;;;;;;43.75;19.73;;;;;;;13.33;71.05;100821.78;5032936;28;20045;-70
2022/03/16 15:48:46;;;;;;;43.78;20.58;;;;;;;13.31;71.03;100821.97;5032916;28;20038;-70
2022/03/16 15:51:14;;;;;;;43.00;20.92;;;;;;;13.34;71.12;100820.78;5032555;28;20406;-70
2022/03/16 15:53:40;;;;;;;48.00;21.40;;;;;;;13.33;71.12;100816.44;5031394;28;20347;-69
2022/03/16 15:56:06;;;;;;;42.58;18.40;;;;;;;13.23;71.01;100797.94;5032468;28;20025;-69
2022/03/16 15:58:32;;;;;;;48.45;21.63;;;;;;;13.27;71.13;100804.59;5031444;28;20041;-70
2022/03/16 16:00:57;;;;;;;43.40;21.02;;;;;;;13.21;71.25;100803.47;5032479;28;20037;-70
2022/03/16 16:03:24;;;;;;;51.65;20.52;;;;;;;13.19;71.71;100808.13;5030876;28;20052;-70
2022/03/16 16:05:52;;;;;;;47.50;20.83;;;;;;;13.17;71.20;100814.66;5031455;28;20437;-70
2022/03/16 16:08:19;;;;;;;46.50;21.50;;;;;;;13.15;71.61;100809.47;5032869;28;20037;-70
2022/03/16 16:11:07;;;;;;;43.50;21.30;;;;;;;13.00;71.91;100803.22;5032075;28;20061;-70
2022/03/16 16:13:30;;;;;;;50.72;23.15;;;;;;;13.08;71.77;100794.31;5031625;28;20417;-70
2022/03/16 16:15:56;;;;;;;48.50;20.60;;;;;;;13.03;72.36;100798.34;5030532;28;20029;-70
2022/03/16 16:18:21;;;;;;;41.33;20.33;;;;;;;13.10;71.68;100805.66;5032179;28;20478;-70
2022/03/16 16:20:47;;;;;;;41.95;19.15;;;;;;;13.06;71.60;100805.22;5030957;28;20494;-70
2022/03/16 16:23:15;;;;;;;40.70;18.65;;;;;;;13.12;73.54;100817.03;5030767;28;20061;-71
2022/03/16 16:25:44;;;;;;;40.92;18.98;;;;;;;13.11;71.75;100818.88;5032329;28;20068;-70
2022/03/16 16:28:11;;;;;;;43.83;17.95;;;;;;;13.11;71.51;100818.88;5032048;28;20490;-69
2022/03/16 16:30:42;;;;;;;39.40;19.58;;;;;;;13.13;71.43;100830.25;5032221;28;20445;-69
2022/03/16 16:33:08;;;;;;;44.88;20.48;;;;;;;13.10;71.42;100827.91;5032381;28;20364;-70
2022/03/16 16:35:41;;;;;;;47.42;20.13;;;;;;;12.85;72.89;100839.75;5031392;28;20068;-70
2022/03/16 16:38:08;;;;;;;43.15;20.55;;;;;;;12.93;72.01;100839.69;5032026;28;20072;-70
2022/03/16 16:40:34;;;;;;;41.47;18.73;;;;;;;12.93;72.18;100831.69;5032070;28;20080;-70
2022/03/16 16:43:15;;;;;;;37.10;18.48;;;;;;;12.94;71.97;100818.13;5031444;28;20540;-71
2022/03/16 16:45:45;;;;;;;42.92;19.17;;;;;;;12.85;72.30;100816.50;5031130;28;20159;-69
2022/03/16 16:48:13;;;;;;;37.13;18.23;;;;;;;12.91;71.55;100809.59;5032579;28;20033;-69
2022/03/16 16:50:40;;;;;;;39.33;18.17;;;;;;;12.83;71.77;100807.81;5031965;28;20029;-69
2022/03/16 16:53:07;;;;;;;39.70;18.63;;;;;;;12.81;72.31;100830.41;5031506;28;20487;-70
2022/03/16 16:55:34;;;;;;;37.50;18.87;;;;;;;12.78;72.26;100839.59;5031848;28;20664;-69
2022/03/16 16:58:01;;;;;;;47.78;19.42;;;;;;;12.76;72.12;100834.41;5031844;28;20060;-69
2022/03/16 17:00:28;;;;;;;38.43;18.37;;;;;;;12.65;72.79;100837.47;5030281;28;20041;-69
2022/03/16 17:02:55;;;;;;;45.25;19.48;;;;;;;12.67;72.57;100832.78;5031140;28;20275;-69